createdAt,value
2023-09-27T00:00:00.647Z,6.90
2023-09-27T00:01:33.396Z,7.10
2023-09-27T00:03:05.516Z,6.90
2023-09-27T00:04:37.507Z,6.90
2023-09-27T00:06:09.764Z,6.20
2023-09-27T00:07:42.992Z,6.80
2023-09-27T00:09:15.932Z,7.10
2023-09-27T00:10:47.727Z,7.40
2023-09-27T00:12:19.607Z,7.00
2023-09-27T00:13:51.526Z,7.10
2023-09-27T00:15:24.311Z,7.30
2023-09-27T00:16:57.565Z,8.00
2023-09-27T00:18:29.381Z,7.00
2023-09-27T00:20:01.283Z,7.00
2023-09-27T00:21:33.102Z,6.90
2023-09-27T00:23:06.825Z,7.10
2023-09-27T00:24:40.252Z,7.30
2023-09-27T00:26:12.080Z,7.30
2023-09-27T00:27:44.528Z,7.70
2023-09-27T00:29:16.336Z,7.70
2023-09-27T00:30:52.029Z,7.20
2023-09-27T00:32:23.993Z,7.60
2023-09-27T00:33:55.895Z,7.10
2023-09-27T00:35:27.895Z,7.30
2023-09-27T00:37:00.150Z,7.80
2023-09-27T00:38:32.684Z,6.60
2023-09-27T00:40:11.491Z,8.20
2023-09-27T00:41:43.327Z,8.10
2023-09-27T00:43:33.373Z,7.70
2023-09-27T00:45:06.694Z,7.40
2023-09-27T00:46:41.542Z,7.60
2023-09-27T00:48:13.503Z,7.50
2023-09-27T00:49:45.817Z,7.00
2023-09-27T00:51:17.770Z,7.10
2023-09-27T00:52:50.684Z,7.70
2023-09-27T00:54:22.922Z,7.10
2023-09-27T00:55:56.714Z,7.80
2023-09-27T00:57:28.689Z,6.60
2023-09-27T00:59:00.560Z,6.40
2023-09-27T01:00:34.392Z,6.20
2023-09-27T01:02:07.607Z,6.80
2023-09-27T01:03:39.780Z,6.70
2023-09-27T01:05:12.583Z,7.10
2023-09-27T01:06:45.427Z,6.50
2023-09-27T01:08:17.287Z,7.10
2023-09-27T01:09:49.685Z,7.50
2023-09-27T01:11:21.638Z,6.70
2023-09-27T01:12:54.090Z,7.30
2023-09-27T01:14:26.058Z,7.70
2023-09-27T01:15:57.831Z,7.30
2023-09-27T01:17:29.736Z,7.30
2023-09-27T01:19:03.493Z,7.60
2023-09-27T01:20:35.469Z,6.80
2023-09-27T01:22:07.350Z,7.10
2023-09-27T01:23:42.214Z,7.10
2023-09-27T01:25:18.592Z,7.20
2023-09-27T01:26:50.463Z,7.40
2023-09-27T01:28:22.611Z,7.30
2023-09-27T01:29:54.407Z,7.00
2023-09-27T01:31:26.189Z,6.80
2023-09-27T01:32:58.947Z,7.30
2023-09-27T01:34:32.774Z,7.10
2023-09-27T01:36:05.681Z,8.00
2023-09-27T01:37:37.590Z,7.40
2023-09-27T01:39:09.699Z,8.00
2023-09-27T01:40:46.463Z,8.00
2023-09-27T01:42:18.182Z,7.90
2023-09-27T01:43:50.047Z,8.00
2023-09-27T01:45:21.946Z,8.20
2023-09-27T01:46:56.157Z,8.40
2023-09-27T01:48:28.126Z,8.20
2023-09-27T01:49:59.982Z,7.70
2023-09-27T01:51:32.478Z,7.90
2023-09-27T01:53:04.820Z,8.10
2023-09-27T01:54:36.745Z,8.40
2023-09-27T01:56:08.557Z,7.40
2023-09-27T01:57:41.653Z,7.90
2023-09-27T01:59:13.989Z,7.70
2023-09-27T02:00:46.002Z,8.00
2023-09-27T02:02:17.836Z,7.70
2023-09-27T02:03:49.843Z,8.10
2023-09-27T02:05:21.744Z,8.10
2023-09-27T02:06:53.703Z,8.00
2023-09-27T02:08:25.586Z,7.30
2023-09-27T02:09:57.486Z,7.10
2023-09-27T02:11:29.325Z,7.70
2023-09-27T02:13:01.118Z,7.40
2023-09-27T02:14:32.895Z,7.70
2023-09-27T02:16:04.970Z,8.10
2023-09-27T02:17:42.552Z,7.40
2023-09-27T02:19:14.720Z,7.60
2023-09-27T02:20:46.867Z,8.10
2023-09-27T02:22:19.667Z,7.30
2023-09-27T02:23:51.983Z,7.40
2023-09-27T02:25:24.325Z,7.50
2023-09-27T02:26:56.090Z,8.40
2023-09-27T02:28:30.599Z,8.00
2023-09-27T02:30:04.692Z,7.70
2023-09-27T02:31:36.823Z,7.80
2023-09-27T02:33:08.773Z,7.70
2023-09-27T02:34:41.178Z,7.20
2023-09-27T02:36:13.038Z,7.70
2023-09-27T02:37:45.548Z,7.90
2023-09-27T02:39:17.354Z,7.40
2023-09-27T02:40:49.249Z,7.80
2023-09-27T02:42:21.370Z,7.80
2023-09-27T02:43:53.331Z,7.50
2023-09-27T02:45:25.280Z,7.70
2023-09-27T02:46:57.170Z,7.60
2023-09-27T02:48:30.294Z,8.30
2023-09-27T02:50:11.103Z,7.50
2023-09-27T02:51:43.131Z,8.30
2023-09-27T02:53:15.200Z,7.70
2023-09-27T02:54:48.607Z,7.70
2023-09-27T02:56:20.413Z,7.70
2023-09-27T02:57:54.339Z,7.80
2023-09-27T02:59:30.625Z,7.80
2023-09-27T03:01:02.499Z,8.00
2023-09-27T03:02:35.232Z,8.40
2023-09-27T03:04:08.934Z,8.20
2023-09-27T03:05:42.101Z,8.50
2023-09-27T03:07:15.278Z,8.40
2023-09-27T03:08:49.456Z,9.20
2023-09-27T03:10:22.601Z,8.40
2023-09-27T03:11:54.696Z,8.30
2023-09-27T03:13:27.376Z,8.80
2023-09-27T03:14:59.243Z,9.10
2023-09-27T03:16:31.335Z,8.40
2023-09-27T03:18:04.785Z,9.00
2023-09-27T03:19:36.661Z,8.90
2023-09-27T03:21:08.419Z,8.90
2023-09-27T03:22:40.213Z,8.50
2023-09-27T03:24:12.027Z,8.50
2023-09-27T03:25:43.870Z,8.20
2023-09-27T03:27:16.166Z,8.50
2023-09-27T03:28:48.123Z,8.10
2023-09-27T03:30:20.224Z,8.70
2023-09-27T03:31:52.061Z,9.00
2023-09-27T03:33:23.940Z,9.10
2023-09-27T03:34:56.275Z,8.90
2023-09-27T03:36:29.413Z,9.20
2023-09-27T03:38:01.265Z,9.40
2023-09-27T03:39:36.887Z,9.00
2023-09-27T03:41:11.128Z,9.00
2023-09-27T03:42:45.867Z,8.80
2023-09-27T03:44:18.059Z,9.00
2023-09-27T03:45:50.800Z,8.20
2023-09-27T03:47:22.792Z,8.80
2023-09-27T03:48:54.950Z,8.40
2023-09-27T03:50:27.003Z,8.70
2023-09-27T03:51:58.775Z,8.90
2023-09-27T03:53:32.883Z,9.40
2023-09-27T03:55:05.197Z,9.30
2023-09-27T03:56:37.985Z,8.90
2023-09-27T03:58:09.827Z,9.20
2023-09-27T03:59:41.655Z,9.50
2023-09-27T04:01:13.592Z,9.30
2023-09-27T04:02:46.337Z,8.80
2023-09-27T04:04:19.593Z,9.20
2023-09-27T04:05:52.546Z,8.80
2023-09-27T04:07:24.408Z,9.00
2023-09-27T04:08:56.182Z,9.20
2023-09-27T04:10:30.511Z,9.30
2023-09-27T04:12:02.371Z,7.90
2023-09-27T04:13:34.090Z,9.30
2023-09-27T04:15:10.447Z,8.90
2023-09-27T04:16:43.245Z,8.10
2023-09-27T04:18:15.000Z,9.10
2023-09-27T04:19:46.864Z,10.00
2023-09-27T04:21:18.716Z,9.10
2023-09-27T04:22:51.026Z,8.80
2023-09-27T04:24:24.411Z,9.00
2023-09-27T04:25:56.599Z,9.00
2023-09-27T04:27:28.384Z,8.00
2023-09-27T04:29:01.460Z,8.40
2023-09-27T04:30:33.509Z,8.50
2023-09-27T04:32:05.518Z,8.60
2023-09-27T04:33:37.454Z,8.20
2023-09-27T04:35:09.935Z,8.50
2023-09-27T04:36:41.754Z,9.00
2023-09-27T04:38:13.727Z,8.60
2023-09-27T04:39:45.486Z,8.30
2023-09-27T04:41:19.221Z,10.10
2023-09-27T04:42:51.132Z,9.30
2023-09-27T04:44:23.021Z,9.30
2023-09-27T04:45:54.810Z,9.00
2023-09-27T04:47:26.731Z,9.40
2023-09-27T04:48:58.630Z,8.90
2023-09-27T04:50:30.407Z,9.40
2023-09-27T04:52:02.186Z,9.40
2023-09-27T04:53:38.474Z,8.10
2023-09-27T04:55:11.084Z,8.00
2023-09-27T04:56:42.970Z,8.30
2023-09-27T04:58:14.864Z,8.90
2023-09-27T04:59:46.594Z,9.00
2023-09-27T05:01:18.467Z,9.40
2023-09-27T05:02:53.340Z,9.00
2023-09-27T05:04:25.487Z,8.70
2023-09-27T05:05:57.283Z,9.50
2023-09-27T05:07:30.720Z,8.40
2023-09-27T05:09:02.969Z,8.70
2023-09-27T05:10:34.688Z,8.70
2023-09-27T05:12:07.132Z,8.80
2023-09-27T05:13:39.027Z,9.30
2023-09-27T05:15:11.272Z,9.70
2023-09-27T05:16:43.057Z,9.10
2023-09-27T05:18:15.196Z,9.20
2023-09-27T05:19:46.967Z,9.10
2023-09-27T05:21:18.824Z,9.10
2023-09-27T05:22:50.948Z,9.40
2023-09-27T05:24:22.925Z,10.40
2023-09-27T05:25:54.832Z,10.30
2023-09-27T05:27:26.641Z,9.80
2023-09-27T05:28:58.485Z,9.20
2023-09-27T05:30:30.339Z,9.30
2023-09-27T05:32:03.274Z,9.20
2023-09-27T05:33:35.081Z,9.00
2023-09-27T05:35:07.480Z,10.00
2023-09-27T05:36:41.636Z,10.30
2023-09-27T05:38:13.533Z,9.90
2023-09-27T05:39:45.558Z,10.20
2023-09-27T05:41:17.374Z,10.70
2023-09-27T05:42:49.247Z,10.10
2023-09-27T05:44:21.335Z,9.60
2023-09-27T05:45:53.935Z,10.30
2023-09-27T05:47:25.848Z,9.70
2023-09-27T05:48:57.843Z,10.20
2023-09-27T05:50:29.881Z,9.90
2023-09-27T05:52:03.368Z,9.70
2023-09-27T05:53:35.335Z,9.50
2023-09-27T05:55:08.434Z,9.60
2023-09-27T05:56:40.397Z,8.80
2023-09-27T05:58:12.344Z,9.80
2023-09-27T05:59:46.353Z,9.80
2023-09-27T06:01:22.241Z,9.70
2023-09-27T06:02:54.277Z,9.30
2023-09-27T06:04:26.422Z,9.30
2023-09-27T06:05:59.751Z,9.70
2023-09-27T06:07:32.591Z,9.20
2023-09-27T06:09:10.521Z,9.90
2023-09-27T06:10:42.396Z,8.90
2023-09-27T06:12:14.187Z,9.20
2023-09-27T06:13:46.026Z,9.80
2023-09-27T06:15:18.744Z,9.40
2023-09-27T06:16:52.021Z,9.00
2023-09-27T06:18:24.790Z,9.50
2023-09-27T06:21:44.362Z,9.10
2023-09-27T06:23:16.245Z,8.60
2023-09-27T06:24:48.292Z,8.90
2023-09-27T06:26:20.126Z,8.30
2023-09-27T06:27:52.933Z,8.80
2023-09-27T06:29:24.937Z,9.00
2023-09-27T06:30:58.351Z,8.70
2023-09-27T06:32:31.346Z,9.30
2023-09-27T06:34:03.485Z,8.10
2023-09-27T06:35:35.351Z,8.80
2023-09-27T06:37:08.535Z,8.90
2023-09-27T06:38:41.745Z,10.20
2023-09-27T06:40:17.719Z,9.10
2023-09-27T06:41:49.660Z,8.80
2023-09-27T06:43:21.413Z,8.90
2023-09-27T06:44:53.183Z,8.80
2023-09-27T06:46:27.738Z,8.00
2023-09-27T06:48:01.953Z,8.50
2023-09-27T06:49:33.884Z,8.20
2023-09-27T06:51:06.961Z,8.50
2023-09-27T06:52:41.215Z,8.50
2023-09-27T06:54:12.992Z,8.10
2023-09-27T06:55:46.012Z,8.60
2023-09-27T06:57:17.989Z,8.50
2023-09-27T06:58:53.437Z,8.10
2023-09-27T07:00:26.030Z,8.40
2023-09-27T07:01:57.918Z,8.10
2023-09-27T07:03:34.873Z,8.50
2023-09-27T07:05:07.238Z,7.60
2023-09-27T07:06:39.187Z,7.90
2023-09-27T07:08:11.820Z,8.00
2023-09-27T07:09:43.983Z,7.90
2023-09-27T07:11:15.913Z,7.30
2023-09-27T07:12:47.983Z,8.20
2023-09-27T07:14:21.264Z,7.60
2023-09-27T07:15:53.385Z,7.70
2023-09-27T07:17:26.381Z,7.10
2023-09-27T07:19:02.114Z,7.50
2023-09-27T07:20:36.167Z,7.70
2023-09-27T07:22:11.503Z,7.50
2023-09-27T07:23:43.352Z,7.10
2023-09-27T07:25:19.874Z,7.50
2023-09-27T07:26:53.810Z,7.30
2023-09-27T07:28:26.055Z,7.00
2023-09-27T07:29:57.775Z,7.00
2023-09-27T07:31:30.961Z,6.80
2023-09-27T07:33:13.410Z,7.20
2023-09-27T07:34:45.615Z,7.90
2023-09-27T07:36:18.756Z,7.50
2023-09-27T07:37:50.883Z,7.80
2023-09-27T07:39:23.893Z,7.70
2023-09-27T07:40:55.755Z,7.30
2023-09-27T07:42:27.609Z,7.40
2023-09-27T07:44:00.220Z,7.90
2023-09-27T07:45:35.629Z,8.60
2023-09-27T07:47:08.098Z,8.20
2023-09-27T07:48:42.666Z,8.70
2023-09-27T07:50:14.764Z,9.30
2023-09-27T07:51:46.821Z,9.00
2023-09-27T07:53:21.235Z,8.60
2023-09-27T07:54:53.080Z,8.20
2023-09-27T07:56:27.611Z,8.30
2023-09-27T07:58:01.134Z,7.90
2023-09-27T07:59:33.035Z,8.10
2023-09-27T08:01:06.056Z,6.70
2023-09-27T08:02:39.380Z,7.50
2023-09-27T08:04:14.055Z,7.20
2023-09-27T08:05:46.348Z,7.50
2023-09-27T08:07:20.005Z,7.00
2023-09-27T08:08:53.401Z,6.90
2023-09-27T08:10:25.944Z,7.10
2023-09-27T08:11:57.929Z,7.30
2023-09-27T08:13:31.353Z,7.30
2023-09-27T08:15:05.096Z,6.40
2023-09-27T08:16:37.212Z,6.80
2023-09-27T08:18:09.338Z,7.10
2023-09-27T08:19:41.185Z,6.70
2023-09-27T08:21:13.101Z,6.00
2023-09-27T08:22:44.931Z,7.50
2023-09-27T08:24:18.397Z,6.90
2023-09-27T08:25:50.260Z,6.90
2023-09-27T08:27:22.074Z,6.60
2023-09-27T08:28:54.219Z,6.30
2023-09-27T08:30:26.307Z,6.60
2023-09-27T08:31:58.141Z,7.50
2023-09-27T08:33:30.019Z,7.10
2023-09-27T08:35:06.427Z,7.00
2023-09-27T08:36:38.488Z,6.40
2023-09-27T08:38:10.377Z,6.50
2023-09-27T08:39:43.323Z,6.80
2023-09-27T08:41:16.875Z,6.20
2023-09-27T08:42:52.403Z,6.00
2023-09-27T08:44:25.449Z,6.30
2023-09-27T08:45:57.502Z,5.90
2023-09-27T08:47:31.918Z,5.80
2023-09-27T08:49:04.945Z,6.00
2023-09-27T08:50:38.345Z,5.80
2023-09-27T08:52:10.496Z,5.10
2023-09-27T08:53:43.510Z,5.30
2023-09-27T08:55:18.845Z,5.00
2023-09-27T08:56:52.667Z,4.80
2023-09-27T08:58:26.744Z,4.40
2023-09-27T08:59:58.696Z,5.10
2023-09-27T09:01:34.366Z,4.70
2023-09-27T09:03:06.576Z,5.00
2023-09-27T09:04:39.044Z,4.50
2023-09-27T09:06:14.191Z,4.60
2023-09-27T09:07:46.741Z,4.30
2023-09-27T09:09:18.682Z,5.00
2023-09-27T09:10:50.855Z,4.90
2023-09-27T09:12:22.588Z,5.20
2023-09-27T09:14:05.718Z,4.60
2023-09-27T09:15:42.885Z,4.40
2023-09-27T09:17:19.459Z,3.80
2023-09-27T09:18:56.554Z,3.90
2023-09-27T09:20:34.297Z,3.50
2023-09-27T09:22:12.575Z,3.90
2023-09-27T09:23:48.898Z,3.90
2023-09-27T09:25:23.964Z,3.60
2023-09-27T09:27:09.888Z,3.80
2023-09-27T09:29:01.804Z,4.00
2023-09-27T09:30:42.026Z,4.30
2023-09-27T09:32:17.129Z,3.50
2023-09-27T09:34:13.234Z,3.90
2023-09-27T09:35:46.107Z,3.80
2023-09-27T09:37:22.740Z,3.70
2023-09-27T09:38:54.734Z,3.60
2023-09-27T09:40:26.911Z,3.40
2023-09-27T09:42:01.568Z,4.00
2023-09-27T09:43:37.998Z,3.80
2023-09-27T09:45:13.608Z,3.90
2023-09-27T09:46:46.046Z,4.30
2023-09-27T09:48:18.699Z,4.20
2023-09-27T09:49:51.919Z,4.40
2023-09-27T09:51:25.375Z,4.70
2023-09-27T09:52:59.768Z,4.30
2023-09-27T09:54:54.881Z,3.80
2023-09-27T09:56:50.302Z,4.10
2023-09-27T09:59:05.869Z,4.50
2023-09-27T10:00:47.546Z,4.40
2023-09-27T10:02:28.342Z,4.70
2023-09-27T10:04:05.705Z,4.10
2023-09-27T10:05:40.301Z,4.50
2023-09-27T10:07:15.963Z,4.90
2023-09-27T10:08:49.666Z,4.20
2023-09-27T10:10:23.370Z,4.60
2023-09-27T10:11:57.349Z,4.40
2023-09-27T10:13:29.772Z,4.50
2023-09-27T10:15:05.366Z,4.30
2023-09-27T10:16:39.270Z,5.00
2023-09-27T10:18:23.315Z,4.80
2023-09-27T10:20:15.605Z,4.80
2023-09-27T10:22:09.321Z,4.30
2023-09-27T10:23:47.352Z,4.40
2023-09-27T10:25:25.358Z,4.60
2023-09-27T10:26:57.241Z,4.80
2023-09-27T10:28:29.413Z,4.00
2023-09-27T10:30:02.179Z,4.70
2023-09-27T10:31:58.745Z,4.80
2023-09-27T10:33:31.539Z,4.50
2023-09-27T10:35:19.628Z,4.80
2023-09-27T10:37:04.183Z,4.30
2023-09-27T10:38:46.269Z,4.50
2023-09-27T10:40:23.089Z,4.00
2023-09-27T10:41:55.387Z,4.60
2023-09-27T10:43:36.614Z,4.40
2023-09-27T10:45:10.738Z,4.40
2023-09-27T10:46:46.940Z,4.20
2023-09-27T10:48:21.377Z,4.40
2023-09-27T10:49:53.112Z,4.30
2023-09-27T10:51:27.643Z,5.00
2023-09-27T10:53:00.551Z,4.60
2023-09-27T10:54:33.359Z,4.70
2023-09-27T10:56:05.770Z,4.20
2023-09-27T10:57:40.591Z,4.30
2023-09-27T10:59:14.853Z,4.90
2023-09-27T11:01:01.751Z,4.20
2023-09-27T11:02:33.903Z,4.60
2023-09-27T11:04:06.593Z,4.50
2023-09-27T11:05:38.444Z,4.50
2023-09-27T11:07:10.358Z,4.40
2023-09-27T11:08:42.367Z,4.00
2023-09-27T11:10:34.440Z,4.20
2023-09-27T11:12:06.478Z,4.50
2023-09-27T11:13:47.206Z,4.70
2023-09-27T11:15:24.562Z,4.20
2023-09-27T11:16:56.465Z,3.80
2023-09-27T11:18:28.680Z,3.90
2023-09-27T11:20:13.113Z,3.80
2023-09-27T11:21:45.959Z,4.20
2023-09-27T11:23:21.047Z,4.40
2023-09-27T11:24:52.985Z,4.10
2023-09-27T11:26:30.974Z,4.50
2023-09-27T11:28:03.636Z,4.40
2023-09-27T11:29:36.526Z,3.60
2023-09-27T11:31:08.593Z,3.80
2023-09-27T11:32:53.814Z,3.60
2023-09-27T11:34:26.194Z,4.20
2023-09-27T11:35:57.967Z,3.60
2023-09-27T11:37:29.841Z,4.10
2023-09-27T11:39:01.647Z,4.20
2023-09-27T11:40:35.980Z,4.40
2023-09-27T11:42:07.964Z,3.70
2023-09-27T11:43:39.889Z,4.60
2023-09-27T11:45:15.196Z,5.10
2023-09-27T11:46:50.846Z,5.80
2023-09-27T11:48:34.748Z,4.10
2023-09-27T11:50:07.531Z,4.30
2023-09-27T11:51:39.775Z,4.00
2023-09-27T11:53:12.297Z,4.50
2023-09-27T11:54:46.688Z,4.60
2023-09-27T11:56:18.739Z,4.60
2023-09-27T11:57:50.503Z,4.20
2023-09-27T11:59:22.392Z,4.40
2023-09-27T12:00:54.226Z,4.30
2023-09-27T12:02:29.669Z,4.60
2023-09-27T12:04:06.970Z,3.90
2023-09-27T12:05:39.511Z,4.50
2023-09-27T12:07:12.052Z,4.20
2023-09-27T12:08:44.262Z,4.00
2023-09-27T12:10:17.450Z,4.10
2023-09-27T12:11:49.721Z,4.30
2023-09-27T12:13:21.512Z,4.50
2023-09-27T12:14:54.017Z,4.30
2023-09-27T12:16:27.398Z,4.10
2023-09-27T12:17:59.439Z,4.20
2023-09-27T12:19:35.574Z,4.20
2023-09-27T12:21:07.470Z,4.20
2023-09-27T12:22:39.302Z,4.10
2023-09-27T12:24:11.112Z,4.30
2023-09-27T12:25:43.240Z,4.00
2023-09-27T12:27:15.868Z,3.70
2023-09-27T12:28:47.589Z,3.80
2023-09-27T12:30:19.503Z,3.30
2023-09-27T12:31:51.262Z,4.00
2023-09-27T12:33:23.191Z,4.20
2023-09-27T12:34:55.163Z,3.80
2023-09-27T12:36:27.176Z,4.00
2023-09-27T12:38:00.770Z,3.50
2023-09-27T12:39:32.568Z,4.30
2023-09-27T12:41:09.178Z,4.00
2023-09-27T12:42:41.209Z,4.50
2023-09-27T12:44:21.439Z,3.90
2023-09-27T12:45:56.482Z,4.10
2023-09-27T12:47:28.319Z,4.00
2023-09-27T12:49:00.538Z,4.00
2023-09-27T12:50:32.572Z,3.70
2023-09-27T12:52:04.576Z,4.60
2023-09-27T12:53:36.503Z,4.30
2023-09-27T12:55:10.450Z,4.90
2023-09-27T12:56:42.228Z,4.90
2023-09-27T12:58:15.261Z,5.00
2023-09-27T12:59:48.421Z,4.10
2023-09-27T13:01:20.699Z,4.30
2023-09-27T13:02:52.708Z,4.70
2023-09-27T13:04:24.604Z,4.40
2023-09-27T13:05:56.592Z,4.00
2023-09-27T13:07:28.469Z,4.30
2023-09-27T13:09:00.305Z,4.50
2023-09-27T13:10:36.233Z,4.50
2023-09-27T13:12:09.732Z,4.20
2023-09-27T13:13:41.508Z,3.50
2023-09-27T13:15:13.435Z,4.00
2023-09-27T13:16:46.275Z,3.40
2023-09-27T13:18:18.114Z,3.60
2023-09-27T13:19:53.035Z,3.40
2023-09-27T13:21:25.952Z,4.40
2023-09-27T13:22:57.700Z,4.10
2023-09-27T13:24:29.695Z,3.90
2023-09-27T13:26:01.480Z,5.60
2023-09-27T13:27:33.231Z,3.50
2023-09-27T13:29:05.461Z,3.30
2023-09-27T13:30:37.916Z,3.90
2023-09-27T13:32:10.389Z,3.20
2023-09-27T13:33:46.407Z,2.70
2023-09-27T13:35:20.712Z,2.70
2023-09-27T13:36:53.210Z,2.20
2023-09-27T13:38:26.965Z,3.00
2023-09-27T13:40:00.519Z,2.40
2023-09-27T13:41:45.225Z,2.90
2023-09-27T13:43:17.426Z,3.00
2023-09-27T13:44:49.466Z,2.70
2023-09-27T13:46:21.703Z,2.50
2023-09-27T13:47:54.013Z,3.00
2023-09-27T13:49:25.894Z,2.40
2023-09-27T13:50:57.892Z,2.50
2023-09-27T13:52:29.774Z,2.70
2023-09-27T13:54:03.510Z,2.90
2023-09-27T13:55:35.316Z,2.60
2023-09-27T13:57:08.433Z,2.40
2023-09-27T13:58:40.628Z,2.70
2023-09-27T14:00:14.756Z,2.80
2023-09-27T14:01:46.953Z,2.30
2023-09-27T14:03:18.865Z,2.50
2023-09-27T14:04:50.816Z,2.80
2023-09-27T14:06:22.639Z,2.50
2023-09-27T14:07:54.596Z,2.70
2023-09-27T14:09:26.451Z,2.50
2023-09-27T14:10:58.332Z,2.50
2023-09-27T14:12:30.912Z,2.80
2023-09-27T14:14:04.168Z,2.80
2023-09-27T14:15:37.182Z,2.40
2023-09-27T14:17:09.077Z,2.50
2023-09-27T14:18:44.106Z,2.50
2023-09-27T14:20:18.202Z,2.70
2023-09-27T14:21:52.864Z,2.20
2023-09-27T14:23:24.685Z,2.20
2023-09-27T14:25:02.596Z,2.40
2023-09-27T14:26:34.920Z,2.30
2023-09-27T14:28:06.889Z,2.80
2023-09-27T14:29:39.473Z,2.80
2023-09-27T14:31:11.658Z,2.80
2023-09-27T14:32:44.323Z,2.40
2023-09-27T14:34:16.316Z,2.50
2023-09-27T14:37:23.035Z,2.20
2023-09-27T14:39:00.425Z,2.50
2023-09-27T14:40:33.307Z,3.00
2023-09-27T14:42:05.419Z,1.80
2023-09-27T14:43:40.310Z,2.80
2023-09-27T14:45:28.430Z,2.80
2023-09-27T14:47:04.294Z,2.70
2023-09-27T14:48:36.197Z,2.40
2023-09-27T14:50:08.797Z,2.70
2023-09-27T14:51:40.773Z,2.60
2023-09-27T14:53:12.782Z,2.90
2023-09-27T14:54:44.634Z,3.10
2023-09-27T14:56:18.415Z,3.00
2023-09-27T14:57:50.245Z,2.70
2023-09-27T14:59:22.015Z,3.90
2023-09-27T15:00:53.903Z,2.80
2023-09-27T15:02:27.532Z,3.40
2023-09-27T15:03:59.514Z,3.10
2023-09-27T15:05:31.641Z,3.80
2023-09-27T15:07:04.063Z,3.90
2023-09-27T15:08:35.960Z,4.20
2023-09-27T15:10:09.030Z,3.40
2023-09-27T15:11:40.796Z,3.80
2023-09-27T15:13:15.896Z,3.70
2023-09-27T15:14:47.715Z,4.00
2023-09-27T15:16:20.447Z,3.30
2023-09-27T15:17:52.499Z,3.40
2023-09-27T15:19:24.366Z,3.20
2023-09-27T15:20:57.333Z,4.20
2023-09-27T15:22:29.107Z,3.80
2023-09-27T15:24:01.210Z,4.50
2023-09-27T15:25:33.035Z,3.60
2023-09-27T15:27:04.906Z,4.00
2023-09-27T15:28:36.778Z,3.60
2023-09-27T15:30:11.784Z,3.40
2023-09-27T15:31:44.905Z,3.60
2023-09-27T15:33:17.092Z,4.80
2023-09-27T15:34:49.063Z,3.80
2023-09-27T15:36:21.039Z,4.30
2023-09-27T15:37:54.961Z,4.90
2023-09-27T15:39:26.814Z,4.80
2023-09-27T15:40:58.731Z,4.60
2023-09-27T15:42:30.750Z,4.20
2023-09-27T15:44:02.532Z,4.60
2023-09-27T15:45:34.949Z,5.30
2023-09-27T15:47:08.347Z,5.40
2023-09-27T15:48:40.492Z,5.10
2023-09-27T15:50:13.170Z,4.50
2023-09-27T15:51:45.663Z,5.50
2023-09-27T15:53:17.693Z,5.60
2023-09-27T15:54:49.454Z,5.20
2023-09-27T15:56:21.603Z,4.50
2023-09-27T15:57:54.479Z,5.10
2023-09-27T15:59:26.610Z,5.30
2023-09-27T16:01:05.625Z,5.10
2023-09-27T16:02:37.495Z,5.20
2023-09-27T16:04:11.328Z,6.60
2023-09-27T16:05:50.493Z,4.50
2023-09-27T16:07:22.262Z,5.40
2023-09-27T16:08:54.445Z,5.00
2023-09-27T16:10:27.134Z,5.50
2023-09-27T16:11:58.982Z,3.90
2023-09-27T16:13:31.495Z,4.30
2023-09-27T16:15:03.484Z,4.00
2023-09-27T16:16:36.551Z,3.70
2023-09-27T16:18:08.379Z,3.80
2023-09-27T16:19:40.237Z,3.80
2023-09-27T16:21:12.280Z,3.60
2023-09-27T16:22:44.154Z,3.80
2023-09-27T16:24:16.899Z,5.00
2023-09-27T16:25:49.697Z,4.20
2023-09-27T16:27:21.748Z,3.30
2023-09-27T16:28:53.580Z,4.80
2023-09-27T16:30:26.152Z,3.80
2023-09-27T16:31:58.706Z,3.90
2023-09-27T16:33:30.833Z,3.60
2023-09-27T16:35:02.684Z,4.00
2023-09-27T16:36:35.706Z,3.80
2023-09-27T16:38:07.603Z,3.20
2023-09-27T16:39:39.382Z,3.60
2023-09-27T16:41:11.155Z,3.70
2023-09-27T16:42:42.917Z,3.20
2023-09-27T16:44:14.752Z,3.40
2023-09-27T16:45:46.655Z,3.00
2023-09-27T16:47:18.421Z,3.50
2023-09-27T16:48:50.272Z,3.00
2023-09-27T16:50:22.879Z,3.20
2023-09-27T16:51:54.668Z,3.90
2023-09-27T16:53:26.559Z,3.60
2023-09-27T16:54:59.792Z,4.10
2023-09-27T16:56:32.624Z,3.80
2023-09-27T16:58:06.204Z,4.00
2023-09-27T16:59:38.096Z,3.50
2023-09-27T17:01:19.071Z,3.70
2023-09-27T17:02:50.969Z,3.30
2023-09-27T17:04:22.943Z,4.10
2023-09-27T17:05:54.795Z,4.00
2023-09-27T17:07:34.250Z,3.70
2023-09-27T17:09:06.352Z,4.00
2023-09-27T17:10:38.297Z,4.00
2023-09-27T17:12:10.368Z,3.90
2023-09-27T17:13:42.512Z,3.50
2023-09-27T17:15:14.521Z,3.70
2023-09-27T17:16:47.630Z,3.20
2023-09-27T17:18:19.527Z,3.50
2023-09-27T17:19:51.533Z,3.70
2023-09-27T17:21:28.577Z,3.60
2023-09-27T17:23:00.493Z,4.20
2023-09-27T17:24:32.306Z,3.90
2023-09-27T17:26:07.374Z,3.70
2023-09-27T17:27:39.244Z,3.70
2023-09-27T17:29:10.957Z,3.70
2023-09-27T17:30:42.715Z,3.60
2023-09-27T17:32:14.513Z,3.70
2023-09-27T17:33:49.285Z,3.80
2023-09-27T17:35:21.892Z,3.50
2023-09-27T17:36:53.850Z,4.00
2023-09-27T17:38:26.544Z,4.00
2023-09-27T17:39:58.314Z,4.40
2023-09-27T17:41:30.234Z,4.10
2023-09-27T17:43:02.055Z,4.20
2023-09-27T17:44:34.226Z,4.30
2023-09-27T17:46:25.630Z,4.20
2023-09-27T17:47:57.723Z,4.20
2023-09-27T17:49:30.160Z,4.20
2023-09-27T17:51:01.955Z,4.70
2023-09-27T17:52:34.689Z,4.80
2023-09-27T17:54:08.387Z,4.70
2023-09-27T17:55:40.360Z,5.00
2023-09-27T17:57:12.247Z,5.10
2023-09-27T17:58:44.558Z,5.40
2023-09-27T18:00:16.845Z,5.20
2023-09-27T18:01:49.505Z,5.60
2023-09-27T18:03:22.077Z,5.70
2023-09-27T18:04:54.196Z,5.90
2023-09-27T18:06:26.115Z,5.10
2023-09-27T18:07:57.958Z,5.80
2023-09-27T18:09:30.330Z,5.30
2023-09-27T18:11:12.989Z,6.10
2023-09-27T18:12:44.787Z,5.50
2023-09-27T18:14:17.114Z,5.40
2023-09-27T18:15:48.941Z,5.20
2023-09-27T18:17:20.781Z,5.30
2023-09-27T18:18:54.135Z,5.40
2023-09-27T18:20:26.126Z,5.60
2023-09-27T18:21:57.936Z,5.80
2023-09-27T18:23:29.780Z,5.90
2023-09-27T18:25:01.639Z,5.60
2023-09-27T18:26:33.509Z,5.30
2023-09-27T18:28:05.972Z,6.60
2023-09-27T18:29:37.800Z,6.10
2023-09-27T18:31:10.039Z,6.80
2023-09-27T18:32:41.817Z,6.60
2023-09-27T18:34:14.991Z,6.60
2023-09-27T18:35:47.783Z,6.90
2023-09-27T18:37:19.646Z,6.60
2023-09-27T18:38:51.879Z,6.00
2023-09-27T18:40:23.948Z,6.40
2023-09-27T18:41:56.501Z,6.50
2023-09-27T18:43:28.454Z,7.10
2023-09-27T18:45:00.288Z,6.80
2023-09-27T18:46:32.248Z,7.40
2023-09-27T18:48:09.248Z,7.30
2023-09-27T18:49:41.470Z,7.80
2023-09-27T18:51:13.435Z,7.20
2023-09-27T18:52:45.433Z,7.80
2023-09-27T18:54:17.257Z,7.10
2023-09-27T18:55:49.100Z,7.30
2023-09-27T18:57:22.033Z,7.40
2023-09-27T18:58:59.727Z,7.70
2023-09-27T19:00:33.187Z,7.50
2023-09-27T19:02:05.330Z,7.10
2023-09-27T19:03:37.368Z,7.50
2023-09-27T19:05:10.219Z,8.10
2023-09-27T19:06:42.196Z,8.00
2023-09-27T19:08:14.013Z,7.80
2023-09-27T19:09:47.493Z,7.70
2023-09-27T19:11:21.173Z,7.50
2023-09-27T19:12:53.214Z,7.90
2023-09-27T19:14:25.178Z,8.20
2023-09-27T19:15:57.193Z,8.20
2023-09-27T19:17:29.077Z,8.10
2023-09-27T19:19:00.928Z,8.30
2023-09-27T19:20:33.399Z,7.90
2023-09-27T19:22:05.254Z,8.50
2023-09-27T19:23:40.255Z,8.90
2023-09-27T19:25:12.739Z,8.60
2023-09-27T19:26:44.604Z,8.30
2023-09-27T19:28:16.467Z,8.10
2023-09-27T19:29:48.251Z,8.90
2023-09-27T19:31:20.158Z,9.00
2023-09-27T19:32:54.316Z,8.50
2023-09-27T19:34:26.125Z,8.80
2023-09-27T19:35:57.902Z,9.10
2023-09-27T19:37:29.692Z,9.50
2023-09-27T19:39:01.588Z,9.70
2023-09-27T19:40:33.732Z,9.80
2023-09-27T19:42:06.031Z,10.40
2023-09-27T19:43:37.839Z,10.00
2023-09-27T19:45:11.176Z,9.30
2023-09-27T19:46:43.026Z,9.70
2023-09-27T19:48:14.925Z,10.00
2023-09-27T19:49:46.856Z,9.90
2023-09-27T19:51:28.194Z,10.10
2023-09-27T19:53:00.408Z,9.70
2023-09-27T19:54:37.325Z,9.10
2023-09-27T19:56:09.100Z,9.00
2023-09-27T19:57:40.936Z,8.10
2023-09-27T19:59:12.878Z,9.00
2023-09-27T20:00:45.311Z,7.70
2023-09-27T20:02:17.364Z,6.40
2023-09-27T20:03:49.339Z,6.30
2023-09-27T20:05:21.391Z,5.30
2023-09-27T20:06:54.217Z,5.20
2023-09-27T20:08:27.422Z,4.80
2023-09-27T20:09:59.152Z,4.20
2023-09-27T20:11:31.957Z,4.30
2023-09-27T20:13:03.995Z,4.20
2023-09-27T20:14:35.730Z,3.70
2023-09-27T20:16:07.577Z,3.20
2023-09-27T20:17:40.585Z,3.50
2023-09-27T20:19:12.519Z,3.40
2023-09-27T20:20:44.403Z,3.20
2023-09-27T20:22:16.266Z,2.90
2023-09-27T20:23:50.067Z,3.60
2023-09-27T20:25:21.875Z,3.00
2023-09-27T20:26:54.174Z,3.40
2023-09-27T20:28:26.405Z,3.20
2023-09-27T20:29:58.292Z,3.10
2023-09-27T20:31:30.157Z,3.20
2023-09-27T20:33:02.461Z,3.50
2023-09-27T20:34:34.545Z,3.10
2023-09-27T20:36:07.334Z,3.30
2023-09-27T20:37:39.333Z,3.50
2023-09-27T20:39:11.166Z,3.20
2023-09-27T20:40:43.034Z,3.10
2023-09-27T20:42:15.950Z,3.30
2023-09-27T20:43:47.759Z,3.10